Time;durP1;ratioP1;P1;durP2;ratioP2;P2;SDS_P1;SDS_P2;PMS_P1;PMS_P2;Temp;Humidity;BMP_temperature;BMP_pressure;BME280_temperature;BME280_humidity;BME280_pressure;Samples;Min_cycle;Max_cycle;Signal;HPM_P1;HPM_P2
2022/06/02 00:01:53;;;;;;;8.52;2.67;;;;;;;;;;4456062;32;20336;-57
2022/06/02 00:04:25;;;;;;;6.78;2.78;;;;;;;;;;4450387;32;20226;-56
2022/06/02 00:06:56;;;;;;;14.30;3.08;;;;;;;;;;4452755;32;20232;-56
2022/06/02 00:09:45;;;;;;;10.30;2.17;;;;;;;;;;4464959;32;20596;-55
2022/06/02 00:12:24;;;;;;;5.00;2.42;;;;;;;;;;4445628;32;20248;-55
2022/06/02 00:15:19;;;;;;;7.53;2.72;;;;;;;;;;4468079;32;20192;-56
2022/06/02 00:18:03;;;;;;;4.80;2.25;;;;;;;;;;4468508;32;20310;-55
2022/06/02 00:20:37;;;;;;;4.62;2.55;;;;;;;;;;4468079;32;20216;-56
2022/06/02 00:23:09;;;;;;;4.53;2.60;;;;;;;;;;4467980;32;20325;-56
2022/06/02 00:25:54;;;;;;;8.10;2.40;;;;;;;;;;4468646;32;20486;-56
2022/06/02 00:28:46;;;;;;;6.90;2.50;;;;;;;;;;4468322;32;20279;-56
2022/06/02 00:31:33;;;;;;;6.40;2.92;;;;;;;;;;4468008;32;20216;-56
2022/06/02 00:34:43;;;;;;;6.22;2.25;;;;;;;;;;4468150;32;20295;-56
2022/06/02 00:37:23;;;;;;;8.65;2.92;;;;;;;;;;4467453;32;20231;-57
2022/06/02 00:39:51;;;;;;;11.85;3.22;;;;;;;;;;4467628;32;20691;-56
2022/06/02 00:42:51;;;;;;;13.13;2.67;;;;;;;;;;4467693;32;20228;-56
2022/06/02 00:45:19;;;;;;;7.32;3.03;;;;;;;;;;4467487;32;20272;-55
2022/06/02 00:47:52;;;;;;;5.22;2.90;;;;;;;;;;4467981;32;20600;-56
2022/06/02 00:50:33;;;;;;;9.85;2.47;;;;;;;;;;4467653;32;20514;-56
2022/06/02 00:53:25;;;;;;;8.98;2.92;;;;;;;;;;4467398;32;20641;-55
2022/06/02 00:59:11;;;;;;;6.78;3.03;;;;;;;;;;4457843;32;20677;-56
2022/06/02 01:01:36;;;;;;;9.38;3.03;;;;;;;;;;4451789;32;20282;-56
2022/06/02 01:04:10;;;;;;;7.78;3.15;;;;;;;;;;4451813;32;20276;-55
2022/06/02 01:06:47;;;;;;;4.72;2.62;;;;;;;;;;4451967;32;20287;-56
2022/06/02 01:09:13;;;;;;;14.65;2.72;;;;;;;;;;4462746;32;20583;-56
2022/06/02 01:11:50;;;;;;;6.68;2.70;;;;;;;;;;4466454;32;20278;-56
2022/06/02 01:14:30;;;;;;;6.45;2.87;;;;;;;;;;4466969;32;20774;-56
2022/06/02 01:17:14;;;;;;;6.40;2.85;;;;;;;;;;4465756;32;20255;-56
2022/06/02 01:19:55;;;;;;;10.85;3.17;;;;;;;;;;4466828;32;20195;-57
2022/06/02 01:22:21;;;;;;;8.10;2.95;;;;;;;;;;4466709;32;20239;-56
2022/06/02 01:25:20;;;;;;;4.75;2.45;;;;;;;;;;4466904;32;20272;-57
2022/06/02 01:28:07;;;;;;;7.65;2.50;;;;;;;;;;4466602;32;20664;-57
2022/06/02 01:30:48;;;;;;;8.60;3.08;;;;;;;;;;4466843;32;20275;-55
2022/06/02 01:33:52;;;;;;;5.70;2.90;;;;;;;;;;4461125;32;20291;-56
2022/06/02 01:36:39;;;;;;;13.45;3.20;;;;;;;;;;4411476;32;20300;-57
2022/06/02 01:39:41;;;;;;;9.95;4.03;;;;;;;;;;4450982;32;20236;-56
2022/06/02 01:42:26;;;;;;;6.55;2.90;;;;;;;;;;4451212;32;20632;-55
2022/06/02 01:45:17;;;;;;;19.23;3.92;;;;;;;;;;4451054;32;20246;-55
2022/06/02 01:47:46;;;;;;;5.50;2.45;;;;;;;;;;4451536;32;20216;-56
2022/06/02 01:50:46;;;;;;;13.52;4.30;;;;;;;;;;4449674;32;20267;-56
2022/06/02 01:53:25;;;;;;;8.98;4.72;;;;;;;;;;4450666;32;20797;-56
2022/06/02 01:55:57;;;;;;;11.95;3.92;;;;;;;;;;4457341;32;20525;-56
2022/06/02 01:58:40;;;;;;;6.35;4.20;;;;;;;;;;4466682;32;20242;-56
2022/06/02 02:01:16;;;;;;;8.82;5.03;;;;;;;;;;4460902;32;20639;-57
2022/06/02 02:04:19;;;;;;;18.30;4.75;;;;;;;;;;4451492;32;20199;-55
2022/06/02 02:07:00;;;;;;;6.65;4.12;;;;;;;;;;4450829;32;20342;-56
2022/06/02 02:09:29;;;;;;;4.97;3.12;;;;;;;;;;4463573;32;20220;-57
2022/06/02 02:11:56;;;;;;;4.55;2.97;;;;;;;;;;4466138;32;20275;-56
2022/06/02 02:14:36;;;;;;;5.65;3.35;;;;;;;;;;4466343;32;20264;-57
2022/06/02 02:17:14;;;;;;;12.35;3.12;;;;;;;;;;4466153;32;20219;-57
2022/06/02 02:19:42;;;;;;;6.50;2.92;;;;;;;;;;4466258;32;20250;-56
2022/06/02 02:22:18;;;;;;;7.70;3.75;;;;;;;;;;4465401;32;20607;-57
2022/06/02 02:25:02;;;;;;;19.37;9.43;;;;;;;;;;4466122;32;20238;-57
2022/06/02 02:28:02;;;;;;;21.52;9.73;;;;;;;;;;4464188;32;20794;-57
2022/06/02 02:30:36;;;;;;;23.08;9.38;;;;;;;;;;4453315;32;20283;-57
2022/06/02 02:33:46;;;;;;;32.70;14.35;;;;;;;;;;4450211;32;20217;-57
2022/06/02 02:36:49;;;;;;;32.35;11.48;;;;;;;;;;4450144;32;20216;-57
2022/06/02 02:39:31;;;;;;;25.65;9.27;;;;;;;;;;4449722;32;20302;-56
2022/06/02 02:42:04;;;;;;;10.95;4.53;;;;;;;;;;4450290;32;20617;-56
2022/06/02 02:44:41;;;;;;;13.23;6.50;;;;;;;;;;4450509;32;20223;-56
2022/06/02 02:47:11;;;;;;;19.65;7.65;;;;;;;;;;4450199;32;20531;-57
2022/06/02 02:49:50;;;;;;;17.77;7.25;;;;;;;;;;4450565;32;20250;-57
2022/06/02 02:52:49;;;;;;;18.40;6.47;;;;;;;;;;4450065;32;20236;-57
2022/06/02 02:55:23;;;;;;;9.55;4.03;;;;;;;;;;4452804;32;20262;-56
2022/06/02 02:58:04;;;;;;;11.63;5.22;;;;;;;;;;4464096;32;20212;-57
2022/06/02 03:00:49;;;;;;;11.68;3.37;;;;;;;;;;4450000;32;20216;-56
2022/06/02 03:03:27;;;;;;;9.77;3.45;;;;;;;;;;4449470;32;20274;-56
2022/06/02 03:06:12;;;;;;;8.43;3.33;;;;;;;;;;4450090;32;20226;-56
2022/06/02 03:09:02;;;;;;;15.45;6.85;;;;;;;;;;4457347;32;20212;-56
2022/06/02 03:11:49;;;;;;;24.52;9.82;;;;;;;;;;4465501;32;20232;-56
2022/06/02 03:14:18;;;;;;;18.25;7.45;;;;;;;;;;4465838;32;20649;-56
2022/06/02 03:16:49;;;;;;;9.52;4.62;;;;;;;;;;4465596;32;20239;-56
2022/06/02 03:19:49;;;;;;;10.10;4.53;;;;;;;;;;4465947;32;20299;-56
2022/06/02 03:22:18;;;;;;;12.55;4.93;;;;;;;;;;4465533;32;20299;-56
2022/06/02 03:24:48;;;;;;;9.93;4.22;;;;;;;;;;4465367;32;20632;-57
2022/06/02 03:27:24;;;;;;;7.40;3.85;;;;;;;;;;4465010;32;20294;-57
2022/06/02 03:30:12;;;;;;;7.15;4.18;;;;;;;;;;4465140;32;20481;-57
2022/06/02 03:32:46;;;;;;;3.97;2.35;;;;;;;;;;4465183;32;20604;-56
2022/06/02 03:35:49;;;;;;;5.68;3.25;;;;;;;;;;4464853;32;20200;-56
2022/06/02 03:38:17;;;;;;;8.00;5.10;;;;;;;;;;4464647;32;20287;-56
2022/06/02 03:41:01;;;;;;;9.13;3.67;;;;;;;;;;4464876;32;20242;-57
2022/06/02 03:43:41;;;;;;;10.07;3.65;;;;;;;;;;4465165;32;20227;-56
2022/06/02 03:46:45;;;;;;;8.55;4.20;;;;;;;;;;4465193;32;20208;-56
2022/06/02 03:49:43;;;;;;;20.35;4.60;;;;;;;;;;4464866;32;20216;-56
2022/06/02 03:52:11;;;;;;;10.80;3.58;;;;;;;;;;4429337;32;20311;-56
2022/06/02 03:55:28;;;;;;;7.68;3.80;;;;;;;;;;4464556;32;20351;-56
2022/06/02 03:58:12;;;;;;;7.53;3.45;;;;;;;;;;4385653;32;20249;-56
2022/06/02 04:00:49;;;;;;;10.23;3.87;;;;;;;;;;4461933;32;20221;-55
2022/06/02 04:03:37;;;;;;;12.88;4.65;;;;;;;;;;4449369;32;20729;-55
2022/06/02 04:06:40;;;;;;;14.90;4.30;;;;;;;;;;4425575;32;20280;-55
2022/06/02 04:09:26;;;;;;;15.13;3.42;;;;;;;;;;4459819;32;20616;-56
2022/06/02 04:15:35;;;;;;;5.70;3.62;;;;;;;;;;4463852;32;20264;-56
2022/06/02 04:18:35;;;;;;;9.23;4.43;;;;;;;;;;4457537;32;20244;-56
2022/06/02 04:21:00;;;;;;;27.10;6.35;;;;;;;;;;4464184;32;20197;-56
2022/06/02 04:23:55;;;;;;;12.68;5.15;;;;;;;;;;4448113;32;20679;-56
2022/06/02 04:26:54;;;;;;;10.40;4.93;;;;;;;;;;4426975;32;20252;-56
2022/06/02 04:29:39;;;;;;;9.98;4.95;;;;;;;;;;4448624;32;20684;-56
2022/06/02 04:32:40;;;;;;;10.80;4.22;;;;;;;;;;4447668;32;20311;-56
2022/06/02 04:35:19;;;;;;;20.58;4.07;;;;;;;;;;4447970;32;20295;-56
2022/06/02 04:38:16;;;;;;;10.50;4.50;;;;;;;;;;4448216;32;20219;-56
2022/06/02 04:41:05;;;;;;;11.93;4.80;;;;;;;;;;4446222;32;20220;-56
2022/06/02 04:43:48;;;;;;;6.18;3.90;;;;;;;;;;4447057;32;20228;-57
2022/06/02 04:46:41;;;;;;;6.30;3.37;;;;;;;;;;4446847;32;20732;-56
2022/06/02 04:49:13;;;;;;;5.68;3.40;;;;;;;;;;4448071;32;20309;-56
2022/06/02 04:51:58;;;;;;;12.15;4.28;;;;;;;;;;4450025;32;20648;-56
2022/06/02 04:54:32;;;;;;;9.13;4.78;;;;;;;;;;4451019;32;20261;-56
2022/06/02 04:57:14;;;;;;;7.55;3.72;;;;;;;;;;4464622;32;20219;-56
2022/06/02 04:59:55;;;;;;;21.42;4.68;;;;;;;;;;4452559;32;20235;-56
2022/06/02 05:02:38;;;;;;;5.87;3.08;;;;;;;;;;4451026;32;20259;-56
2022/06/02 05:05:14;;;;;;;4.40;3.62;;;;;;;;;;4449547;32;20279;-57
2022/06/02 05:07:45;;;;;;;6.53;3.40;;;;;;;;;;4452172;32;20212;-57
2022/06/02 05:10:35;;;;;;;13.95;3.97;;;;;;;;;;4466114;32;20203;-57
2022/06/02 05:13:30;;;;;;;5.37;3.40;;;;;;;;;;4466130;32;20601;-56
2022/06/02 05:16:31;;;;;;;10.57;2.75;;;;;;;;;;4463237;32;20402;-56
2022/06/02 05:19:24;;;;;;;17.65;3.75;;;;;;;;;;4417336;32;20270;-56
2022/06/02 05:22:11;;;;;;;8.13;3.22;;;;;;;;;;4464846;32;20295;-57
2022/06/02 05:25:12;;;;;;;8.15;4.10;;;;;;;;;;4466089;32;20212;-56
2022/06/02 05:28:15;;;;;;;21.52;6.12;;;;;;;;;;4466425;32;20248;-55
2022/06/02 05:30:59;;;;;;;12.40;4.20;;;;;;;;;;4466090;32;20227;-56
2022/06/02 05:33:36;;;;;;;8.13;4.53;;;;;;;;;;4464449;32;20396;-56
2022/06/02 05:36:44;;;;;;;16.33;6.30;;;;;;;;;;4464634;32;20626;-55
2022/06/02 05:39:12;;;;;;;10.75;3.97;;;;;;;;;;4437055;32;20677;-57
2022/06/02 05:41:49;;;;;;;19.62;4.82;;;;;;;;;;4463472;32;20648;-56
2022/06/02 05:44:21;;;;;;;10.23;3.92;;;;;;;;;;4463920;32;20294;-57
2022/06/02 05:47:11;;;;;;;10.35;3.53;;;;;;;;;;4463638;32;20282;-56
2022/06/02 05:49:55;;;;;;;9.45;4.12;;;;;;;;;;4465021;32;20223;-56
2022/06/02 05:52:30;;;;;;;5.12;4.07;;;;;;;;;;4465811;32;20212;-56
2022/06/02 05:55:24;;;;;;;9.70;4.70;;;;;;;;;;4465539;32;20203;-56
2022/06/02 05:58:01;;;;;;;11.38;5.12;;;;;;;;;;4463303;32;20255;-56
2022/06/02 06:00:26;;;;;;;10.15;4.40;;;;;;;;;;4449756;32;20308;-55
2022/06/02 06:03:10;;;;;;;22.40;4.50;;;;;;;;;;4449099;32;20270;-55
2022/06/02 06:05:44;;;;;;;9.32;4.97;;;;;;;;;;4449557;32;20220;-55
2022/06/02 06:08:21;;;;;;;18.12;5.15;;;;;;;;;;4454219;32;20336;-56
2022/06/02 06:11:08;;;;;;;17.02;4.80;;;;;;;;;;4465452;32;20303;-56
2022/06/02 06:14:01;;;;;;;19.45;4.50;;;;;;;;;;4465350;32;20218;-56
2022/06/02 06:16:39;;;;;;;16.90;4.78;;;;;;;;;;4449252;32;20587;-56
2022/06/02 06:19:13;;;;;;;17.35;5.55;;;;;;;;;;4449637;32;20588;-56
2022/06/02 06:21:48;;;;;;;21.48;5.25;;;;;;;;;;4449186;32;20324;-56
2022/06/02 06:24:52;;;;;;;16.52;4.70;;;;;;;;;;4449446;32;20235;-57
2022/06/02 06:27:49;;;;;;;8.90;4.10;;;;;;;;;;4449046;32;20251;-57
2022/06/02 06:30:27;;;;;;;10.38;4.25;;;;;;;;;;4449228;32;20197;-56
2022/06/02 06:33:14;;;;;;;8.55;4.32;;;;;;;;;;4449388;32;20233;-57
2022/06/02 06:35:45;;;;;;;8.90;3.80;;;;;;;;;;4462299;32;20204;-55
2022/06/02 06:38:13;;;;;;;17.27;4.35;;;;;;;;;;4465038;32;20904;-57
2022/06/02 06:40:47;;;;;;;5.37;3.28;;;;;;;;;;4465260;32;20260;-55
2022/06/02 06:43:42;;;;;;;6.62;4.03;;;;;;;;;;4464795;32;20613;-57
2022/06/02 06:46:37;;;;;;;4.40;3.12;;;;;;;;;;4464936;32;20271;-55
2022/06/02 06:49:35;;;;;;;7.45;3.47;;;;;;;;;;4464868;32;20230;-57
2022/06/02 06:52:15;;;;;;;13.95;4.32;;;;;;;;;;4450392;32;20583;-57
2022/06/02 06:54:52;;;;;;;8.50;3.30;;;;;;;;;;4464672;32;20652;-56
2022/06/02 06:57:45;;;;;;;6.10;3.75;;;;;;;;;;4448387;32;20274;-57
2022/06/02 07:00:19;;;;;;;8.18;4.32;;;;;;;;;;4426177;32;20274;-57
2022/06/02 07:03:10;;;;;;;14.00;4.15;;;;;;;;;;4448456;32;20295;-56
2022/06/02 07:05:44;;;;;;;8.30;3.83;;;;;;;;;;4448293;32;20236;-55
2022/06/02 07:08:28;;;;;;;12.85;4.37;;;;;;;;;;4453649;32;20247;-56
2022/06/02 07:14:17;;;;;;;9.23;3.47;;;;;;;;;;4463804;32;20230;-56
2022/06/02 07:16:50;;;;;;;10.73;4.70;;;;;;;;;;4463242;32;20255;-56
2022/06/02 07:19:21;;;;;;;11.90;4.72;;;;;;;;;;4463468;32;20276;-56
2022/06/02 07:22:05;;;;;;;6.32;3.72;;;;;;;;;;4463379;32;20247;-56
2022/06/02 07:24:52;;;;;;;7.43;4.80;;;;;;;;;;4464273;32;20219;-57
2022/06/02 07:27:20;;;;;;;7.68;3.78;;;;;;;;;;4463568;32;20236;-56
2022/06/02 07:30:26;;;;;;;10.32;3.65;;;;;;;;;;4463583;32;20780;-56
2022/06/02 07:33:02;;;;;;;3.90;3.00;;;;;;;;;;4463106;32;20305;-56
2022/06/02 07:36:35;;;;;;;9.05;3.60;;;;;;;;;;4463567;32;20204;-56
2022/06/02 07:39:03;;;;;;;5.97;3.17;;;;;;;;;;4393408;32;20359;-56
2022/06/02 07:42:04;;;;;;;10.90;3.47;;;;;;;;;;4399948;32;20311;-55
2022/06/02 07:44:57;;;;;;;15.80;3.62;;;;;;;;;;4458101;32;20216;-57
2022/06/02 07:48:13;;;;;;;5.37;3.20;;;;;;;;;;4463927;32;20215;-56
2022/06/02 07:50:45;;;;;;;4.43;3.00;;;;;;;;;;4399542;32;20198;-56
2022/06/02 07:53:12;;;;;;;8.65;4.03;;;;;;;;;;4459432;32;20249;-56
2022/06/02 07:56:07;;;;;;;9.70;4.00;;;;;;;;;;4463245;32;20219;-56
2022/06/02 07:59:16;;;;;;;11.63;3.45;;;;;;;;;;4463167;32;20263;-57
2022/06/02 08:01:56;;;;;;;7.07;4.45;;;;;;;;;;4422172;32;20309;-56
2022/06/02 08:05:00;;;;;;;6.45;3.70;;;;;;;;;;4448490;32;20227;-57
2022/06/02 08:07:52;;;;;;;5.10;2.95;;;;;;;;;;4444757;32;20663;-56
2022/06/02 08:10:45;;;;;;;6.43;3.45;;;;;;;;;;4463793;32;20315;-55
2022/06/02 08:13:27;;;;;;;5.75;2.95;;;;;;;;;;4463887;32;20342;-57
2022/06/02 08:15:56;;;;;;;4.85;3.30;;;;;;;;;;4463478;32;20203;-55
2022/06/02 08:19:05;;;;;;;5.30;3.10;;;;;;;;;;4463737;32;20238;-55
2022/06/02 08:21:38;;;;;;;9.10;3.92;;;;;;;;;;4462444;32;20343;-55
2022/06/02 08:24:18;;;;;;;6.93;3.25;;;;;;;;;;4463100;32;20196;-57
2022/06/02 08:26:53;;;;;;;7.68;3.60;;;;;;;;;;4465851;32;20348;-58
2022/06/02 08:29:36;;;;;;;7.72;3.53;;;;;;;;;;4466798;32;20199;-57
2022/06/02 08:32:36;;;;;;;11.63;4.28;;;;;;;;;;4464911;32;20239;-55
2022/06/02 08:35:20;;;;;;;13.57;4.22;;;;;;;;;;4466181;32;20196;-55
2022/06/02 08:37:46;;;;;;;5.03;3.10;;;;;;;;;;4466308;32;20742;-55
2022/06/02 08:40:17;;;;;;;9.90;2.92;;;;;;;;;;4466287;32;20220;-57
2022/06/02 08:43:00;;;;;;;15.40;3.70;;;;;;;;;;4465966;32;20236;-55
2022/06/02 08:45:42;;;;;;;12.85;5.20;;;;;;;;;;4466395;32;20204;-56
2022/06/02 08:48:29;;;;;;;9.75;4.22;;;;;;;;;;4466459;32;20216;-57
2022/06/02 08:51:17;;;;;;;4.32;2.92;;;;;;;;;;4464191;32;20320;-55
2022/06/02 08:54:23;;;;;;;14.50;3.50;;;;;;;;;;4466432;32;20654;-55
2022/06/02 08:56:51;;;;;;;8.05;2.78;;;;;;;;;;4428052;32;20708;-55
2022/06/02 08:59:48;;;;;;;17.90;3.33;;;;;;;;;;4450313;32;20333;-57
2022/06/02 09:02:30;;;;;;;10.55;3.25;;;;;;;;;;4450479;32;20675;-56
2022/06/02 09:05:29;;;;;;;4.47;2.47;;;;;;;;;;4449563;32;20297;-55
2022/06/02 09:08:06;;;;;;;8.02;3.37;;;;;;;;;;4453731;32;20311;-56
2022/06/02 09:10:34;;;;;;;7.35;3.08;;;;;;;;;;4466350;32;20608;-55
2022/06/02 09:13:18;;;;;;;6.28;2.60;;;;;;;;;;4466745;32;20235;-56
2022/06/02 09:16:08;;;;;;;9.50;3.33;;;;;;;;;;4466293;32;20565;-55
2022/06/02 09:18:39;;;;;;;14.40;3.92;;;;;;;;;;4466200;32;20239;-55
2022/06/02 09:21:28;;;;;;;4.12;2.42;;;;;;;;;;4465330;32;20296;-56
2022/06/02 09:24:31;;;;;;;6.97;2.80;;;;;;;;;;4465909;32;20239;-56
2022/06/02 09:27:29;;;;;;;10.15;2.78;;;;;;;;;;4464546;32;20283;-55
2022/06/02 09:30:03;;;;;;;5.20;3.05;;;;;;;;;;4466139;32;20196;-55
2022/06/02 09:33:33;;;;;;;10.98;3.75;;;;;;;;;;4465041;32;20540;-56
2022/06/02 09:36:02;;;;;;;12.02;3.20;;;;;;;;;;4465150;32;20227;-56
2022/06/02 09:38:37;;;;;;;12.20;2.65;;;;;;;;;;4463447;32;20256;-55
2022/06/02 09:41:14;;;;;;;5.50;3.10;;;;;;;;;;4465490;32;20215;-56
2022/06/02 09:44:01;;;;;;;10.07;3.28;;;;;;;;;;4466029;32;20187;-55
2022/06/02 09:46:45;;;;;;;7.82;2.42;;;;;;;;;;4464206;32;20549;-55
2022/06/02 09:49:26;;;;;;;4.28;2.08;;;;;;;;;;4464769;32;20263;-56
2022/06/02 09:52:20;;;;;;;5.35;2.40;;;;;;;;;;4464467;32;20240;-55
2022/06/02 09:55:07;;;;;;;8.10;2.35;;;;;;;;;;4465440;32;20323;-55
2022/06/02 10:00:29;;;;;;;9.85;2.37;;;;;;;;;;4449817;32;20284;-55
2022/06/02 10:02:55;;;;;;;5.45;2.50;;;;;;;;;;4465582;32;20295;-55
2022/06/02 10:05:33;;;;;;;14.43;2.53;;;;;;;;;;4464437;32;20612;-55
2022/06/02 10:08:13;;;;;;;4.35;2.25;;;;;;;;;;4460228;32;20609;-56
2022/06/02 10:10:50;;;;;;;11.38;3.95;;;;;;;;;;4448043;32;20193;-56
2022/06/02 10:13:36;;;;;;;5.95;2.85;;;;;;;;;;4449603;32;20228;-56
2022/06/02 10:16:50;;;;;;;4.43;2.33;;;;;;;;;;4448926;32;20247;-56
2022/06/02 10:19:40;;;;;;;9.68;3.42;;;;;;;;;;4436010;32;20307;-55
2022/06/02 10:22:24;;;;;;;8.98;2.40;;;;;;;;;;4448254;32;20714;-55
2022/06/02 10:25:08;;;;;;;9.15;2.80;;;;;;;;;;4450156;32;20256;-55
2022/06/02 10:27:40;;;;;;;9.60;2.60;;;;;;;;;;4449641;32;20263;-55
2022/06/02 10:30:30;;;;;;;11.68;2.60;;;;;;;;;;4449478;32;20299;-55
2022/06/02 10:33:35;;;;;;;4.90;2.20;;;;;;;;;;4448959;32;20330;-55
2022/06/02 10:36:23;;;;;;;8.43;2.58;;;;;;;;;;4449014;32;20253;-56
2022/06/02 10:39:07;;;;;;;3.67;2.78;;;;;;;;;;4449705;32;20192;-55
2022/06/02 10:42:05;;;;;;;14.98;2.78;;;;;;;;;;4449866;32;20227;-55
2022/06/02 10:45:08;;;;;;;9.52;3.15;;;;;;;;;;4450231;32;20572;-55
2022/06/02 10:48:11;;;;;;;7.70;2.58;;;;;;;;;;4450207;32;20216;-56
2022/06/02 10:50:51;;;;;;;4.70;2.30;;;;;;;;;;4449650;32;20220;-55
2022/06/02 10:53:47;;;;;;;10.52;2.75;;;;;;;;;;4450381;32;20216;-55
2022/06/02 10:56:32;;;;;;;3.83;2.12;;;;;;;;;;4456981;32;20224;-56
2022/06/02 10:59:16;;;;;;;6.30;2.35;;;;;;;;;;4464164;32;20212;-55
2022/06/02 11:02:02;;;;;;;9.55;1.95;;;;;;;;;;4454634;32;20663;-56
2022/06/02 11:05:12;;;;;;;10.02;3.00;;;;;;;;;;4449256;32;20212;-56
2022/06/02 11:07:51;;;;;;;8.55;2.92;;;;;;;;;;4437859;32;20272;-56
2022/06/02 11:10:28;;;;;;;8.32;3.15;;;;;;;;;;4464235;32;20232;-56
2022/06/02 11:12:59;;;;;;;9.45;2.47;;;;;;;;;;4464051;32;20242;-56
2022/06/02 11:15:31;;;;;;;4.47;2.00;;;;;;;;;;4464023;32;20463;-55
2022/06/02 11:18:15;;;;;;;5.05;2.10;;;;;;;;;;4464292;32;20356;-55
2022/06/02 11:20:59;;;;;;;5.72;2.15;;;;;;;;;;4464088;32;20208;-55
2022/06/02 11:24:08;;;;;;;6.65;2.55;;;;;;;;;;4464581;32;20307;-55
2022/06/02 11:26:46;;;;;;;9.70;2.70;;;;;;;;;;4461490;32;20270;-55
2022/06/02 11:29:43;;;;;;;6.72;1.92;;;;;;;;;;4463599;32;20196;-55
2022/06/02 11:32:11;;;;;;;5.55;1.95;;;;;;;;;;4464453;32;20238;-54
2022/06/02 11:34:49;;;;;;;7.47;2.00;;;;;;;;;;4464565;32;20280;-55
2022/06/02 11:37:49;;;;;;;4.45;2.03;;;;;;;;;;4464676;32;20258;-55
2022/06/02 11:40:33;;;;;;;5.53;1.92;;;;;;;;;;4464479;32;20184;-56
2022/06/02 11:43:26;;;;;;;9.43;2.08;;;;;;;;;;4464920;32;20224;-55
2022/06/02 11:46:20;;;;;;;6.55;2.20;;;;;;;;;;4464212;32;20336;-55
2022/06/02 11:49:09;;;;;;;6.25;2.22;;;;;;;;;;4463262;32;20318;-55
2022/06/02 11:52:03;;;;;;;10.13;2.87;;;;;;;;;;4460919;32;20220;-56
2022/06/02 11:54:43;;;;;;;10.85;2.10;;;;;;;;;;4448983;32;20257;-56
2022/06/02 11:57:38;;;;;;;9.00;2.50;;;;;;;;;;4463600;32;20617;-56
2022/06/02 12:00:09;;;;;;;7.65;2.80;;;;;;;;;;4464398;32;20635;-56
2022/06/02 12:03:26;;;;;;;13.23;2.72;;;;;;;;;;4449967;32;20232;-56
2022/06/02 12:06:16;;;;;;;14.60;2.85;;;;;;;;;;4422517;32;20276;-57
2022/06/02 12:08:57;;;;;;;12.80;2.40;;;;;;;;;;4449225;32;20630;-57
2022/06/02 12:11:51;;;;;;;13.00;2.25;;;;;;;;;;4449605;32;20236;-56
2022/06/02 12:14:18;;;;;;;4.30;2.15;;;;;;;;;;4449360;32;20231;-57
2022/06/02 12:16:55;;;;;;;5.90;2.47;;;;;;;;;;4449384;32;20283;-57
2022/06/02 12:19:58;;;;;;;12.60;2.67;;;;;;;;;;4449228;32;20252;-55
2022/06/02 12:22:48;;;;;;;10.32;2.55;;;;;;;;;;4449338;32;20239;-56
2022/06/02 12:25:38;;;;;;;15.05;2.92;;;;;;;;;;4449687;32;20264;-56
2022/06/02 12:28:06;;;;;;;8.00;3.37;;;;;;;;;;4449562;32;20237;-56
2022/06/02 12:31:00;;;;;;;12.65;3.15;;;;;;;;;;4447976;32;20633;-56
2022/06/02 12:33:37;;;;;;;12.70;3.00;;;;;;;;;;4448846;32;20275;-56
2022/06/02 12:36:11;;;;;;;14.13;3.05;;;;;;;;;;4449258;32;20284;-56
2022/06/02 12:38:42;;;;;;;11.35;2.30;;;;;;;;;;4454561;32;20245;-56
2022/06/02 12:41:32;;;;;;;13.35;2.05;;;;;;;;;;4464547;32;20553;-56
2022/06/02 12:44:16;;;;;;;9.02;2.85;;;;;;;;;;4464519;32;20200;-57
2022/06/02 12:46:47;;;;;;;7.30;2.67;;;;;;;;;;4464223;32;20611;-56
2022/06/02 12:49:21;;;;;;;6.10;2.40;;;;;;;;;;4451351;32;20298;-57
2022/06/02 12:52:29;;;;;;;12.10;2.67;;;;;;;;;;4449483;32;20215;-56
2022/06/02 12:55:27;;;;;;;10.32;3.28;;;;;;;;;;4419943;32;20258;-56
2022/06/02 12:58:17;;;;;;;8.95;3.40;;;;;;;;;;4462271;32;20655;-56
2022/06/02 13:01:07;;;;;;;5.37;2.90;;;;;;;;;;4449042;32;20228;-55
2022/06/02 13:03:48;;;;;;;10.88;3.25;;;;;;;;;;4448843;32;20216;-55
2022/06/02 13:06:44;;;;;;;15.77;3.97;;;;;;;;;;4449115;32;20254;-57
2022/06/02 13:09:27;;;;;;;14.93;2.92;;;;;;;;;;4459412;32;20232;-56
2022/06/02 13:12:28;;;;;;;7.72;3.05;;;;;;;;;;4465511;32;20220;-57
2022/06/02 13:15:31;;;;;;;8.80;2.67;;;;;;;;;;4431105;32;20283;-56
2022/06/02 13:18:24;;;;;;;5.40;2.80;;;;;;;;;;4466106;32;20220;-57
2022/06/02 13:21:37;;;;;;;4.90;2.53;;;;;;;;;;4465975;32;20196;-57
2022/06/02 13:24:25;;;;;;;6.03;2.58;;;;;;;;;;4460488;32;20263;-56
2022/06/02 13:27:15;;;;;;;12.93;2.53;;;;;;;;;;4465848;32;20244;-55
2022/06/02 13:29:46;;;;;;;5.75;2.30;;;;;;;;;;4466167;32;20204;-56
2022/06/02 13:32:30;;;;;;;13.02;2.58;;;;;;;;;;4466106;32;20300;-56
2022/06/02 13:35:53;;;;;;;8.77;2.35;;;;;;;;;;4465647;32;20303;-56
2022/06/02 13:38:48;;;;;;;10.38;3.10;;;;;;;;;;4401952;32;20225;-56
2022/06/02 13:41:23;;;;;;;7.28;2.33;;;;;;;;;;4402092;32;20264;-56
2022/06/02 13:43:54;;;;;;;6.30;2.35;;;;;;;;;;4454440;32;20326;-56
2022/06/02 13:46:45;;;;;;;8.43;2.62;;;;;;;;;;4450304;32;20251;-56
2022/06/02 13:49:38;;;;;;;7.43;2.30;;;;;;;;;;4450384;32;20288;-56
2022/06/02 13:52:18;;;;;;;7.93;2.37;;;;;;;;;;4450668;32;20243;-55
2022/06/02 13:57:42;;;;;;;8.00;3.08;;;;;;;;;;4450194;32;20247;-57
2022/06/02 14:00:54;;;;;;;13.50;3.42;;;;;;;;;;4450191;32;20339;-56
2022/06/02 14:03:19;;;;;;;6.87;3.35;;;;;;;;;;4449656;32;20255;-56
2022/06/02 14:05:51;;;;;;;8.10;2.72;;;;;;;;;;4449070;32;20753;-56
2022/06/02 14:08:32;;;;;;;15.30;2.92;;;;;;;;;;4455568;32;20293;-56
2022/06/02 14:11:14;;;;;;;9.05;2.22;;;;;;;;;;4465636;32;20265;-56
2022/06/02 14:14:26;;;;;;;3.65;2.10;;;;;;;;;;4466062;32;20252;-55
2022/06/02 14:17:03;;;;;;;7.80;2.47;;;;;;;;;;4460860;32;20224;-56
2022/06/02 14:19:32;;;;;;;5.70;2.40;;;;;;;;;;4465488;32;20230;-55
2022/06/02 14:21:57;;;;;;;18.20;2.72;;;;;;;;;;4465147;32;20314;-56
2022/06/02 14:25:06;;;;;;;4.28;2.65;;;;;;;;;;4464862;32;20306;-56
2022/06/02 14:27:35;;;;;;;7.50;2.72;;;;;;;;;;4442024;32;20232;-56
2022/06/02 14:30:05;;;;;;;6.45;1.87;;;;;;;;;;4465095;32;20475;-56
2022/06/02 14:32:49;;;;;;;6.85;2.95;;;;;;;;;;4464859;32;20360;-57
2022/06/02 14:35:42;;;;;;;6.15;2.97;;;;;;;;;;4464528;32;20570;-56
2022/06/02 14:38:23;;;;;;;9.20;3.10;;;;;;;;;;4464981;32;20224;-56
2022/06/02 14:40:56;;;;;;;12.98;2.90;;;;;;;;;;4458647;32;20338;-55
2022/06/02 14:43:47;;;;;;;15.40;2.60;;;;;;;;;;4449582;32;20256;-55
2022/06/02 14:46:34;;;;;;;4.03;1.98;;;;;;;;;;4449266;32;20249;-55
2022/06/02 14:49:11;;;;;;;12.55;3.10;;;;;;;;;;4448817;32;20212;-55
2022/06/02 14:52:04;;;;;;;10.15;2.87;;;;;;;;;;4449065;32;20243;-57
2022/06/02 14:54:51;;;;;;;9.07;2.58;;;;;;;;;;4449387;32;20204;-55
2022/06/02 14:57:54;;;;;;;5.68;2.17;;;;;;;;;;4449417;32;20281;-56
2022/06/02 15:00:51;;;;;;;6.53;2.22;;;;;;;;;;4450023;32;20228;-56
2022/06/02 15:03:50;;;;;;;14.13;1.95;;;;;;;;;;4464544;32;20235;-55
2022/06/02 15:06:53;;;;;;;14.65;2.65;;;;;;;;;;4464676;32;20741;-56
2022/06/02 15:09:24;;;;;;;6.30;1.90;;;;;;;;;;4452323;32;20282;-56
2022/06/02 15:11:59;;;;;;;10.93;3.03;;;;;;;;;;4449032;32;20314;-58
2022/06/02 15:14:43;;;;;;;5.93;2.22;;;;;;;;;;4449438;32;20271;-56
2022/06/02 15:17:12;;;;;;;7.78;2.25;;;;;;;;;;4448883;32;20255;-56
2022/06/02 15:19:59;;;;;;;8.10;2.83;;;;;;;;;;4448770;32;20200;-55
2022/06/02 15:22:30;;;;;;;9.45;3.08;;;;;;;;;;4449461;32;20224;-55
2022/06/02 15:25:12;;;;;;;15.93;2.37;;;;;;;;;;4449616;32;20793;-55
2022/06/02 15:28:11;;;;;;;5.82;2.20;;;;;;;;;;4449285;32;20312;-55
2022/06/02 15:31:05;;;;;;;4.35;1.90;;;;;;;;;;4449212;32;20265;-55
2022/06/02 15:33:52;;;;;;;7.18;2.30;;;;;;;;;;4449031;32;20812;-55
2022/06/02 15:36:42;;;;;;;8.77;2.50;;;;;;;;;;4447762;32;20302;-56
2022/06/02 15:39:23;;;;;;;4.80;2.45;;;;;;;;;;4448176;32;20208;-56
2022/06/02 15:42:15;;;;;;;8.13;2.40;;;;;;;;;;4449070;32;20223;-56
2022/06/02 15:45:18;;;;;;;5.53;3.15;;;;;;;;;;4449316;32;20543;-56
2022/06/02 15:47:49;;;;;;;10.55;3.17;;;;;;;;;;4449243;32;20389;-55
2022/06/02 15:50:38;;;;;;;10.07;2.90;;;;;;;;;;4449662;32;20227;-55
2022/06/02 15:53:31;;;;;;;10.68;3.03;;;;;;;;;;4426524;32;20748;-55
2022/06/02 15:56:15;;;;;;;7.75;2.90;;;;;;;;;;4456491;32;20619;-56
2022/06/02 15:58:46;;;;;;;3.50;2.35;;;;;;;;;;4465236;32;20236;-55
2022/06/02 16:01:17;;;;;;;6.32;3.00;;;;;;;;;;4458401;32;20260;-56
2022/06/02 16:04:28;;;;;;;8.85;2.67;;;;;;;;;;4449104;32;20200;-56
2022/06/02 16:07:09;;;;;;;9.00;2.85;;;;;;;;;;4449565;32;20713;-56
2022/06/02 16:12:55;;;;;;;6.03;2.40;;;;;;;;;;4464995;32;20254;-55
2022/06/02 16:15:49;;;;;;;4.85;2.55;;;;;;;;;;4463921;32;20568;-57
2022/06/02 16:18:39;;;;;;;8.18;3.20;;;;;;;;;;4463126;32;20291;-57
2022/06/02 16:21:11;;;;;;;11.98;2.45;;;;;;;;;;4463982;32;20237;-57
2022/06/02 16:24:14;;;;;;;9.55;2.35;;;;;;;;;;4465063;32;20265;-57
2022/06/02 16:26:51;;;;;;;13.50;3.08;;;;;;;;;;4464085;32;20227;-56
2022/06/02 16:29:48;;;;;;;12.00;3.20;;;;;;;;;;4463700;32;20278;-56
2022/06/02 16:32:17;;;;;;;6.93;2.47;;;;;;;;;;4419424;32;20237;-55
2022/06/02 16:35:07;;;;;;;9.98;3.05;;;;;;;;;;4463594;32;20224;-56
2022/06/02 16:38:15;;;;;;;8.52;2.78;;;;;;;;;;4463884;32;20279;-57
2022/06/02 16:41:09;;;;;;;10.55;2.78;;;;;;;;;;4464275;32;20204;-56
2022/06/02 16:43:37;;;;;;;9.50;2.40;;;;;;;;;;4464220;32;20244;-56